sensor_id;sensor_type;location;lat;lon;timestamp;temperature;humidity
19085;DHT22;9675;51.538;6.728;2022-09-27T00:01:03;12.80;99.90
19085;DHT22;9675;51.538;6.728;2022-09-27T00:03:31;12.80;99.90
19085;DHT22;9675;51.538;6.728;2022-09-27T00:06:03;12.80;99.90
19085;DHT22;9675;51.538;6.728;2022-09-27T00:08:34;12.80;99.90
19085;DHT22;9675;51.538;6.728;2022-09-27T00:11:04;12.80;99.90
19085;DHT22;9675;51.538;6.728;2022-09-27T00:13:33;12.70;99.90
19085;DHT22;9675;51.538;6.728;2022-09-27T00:16:02;12.80;99.90
19085;DHT22;9675;51.538;6.728;2022-09-27T00:18:31;12.70;99.90
19085;DHT22;9675;51.538;6.728;2022-09-27T00:21:04;12.70;99.90
19085;DHT22;9675;51.538;6.728;2022-09-27T00:23:34;12.70;99.90
19085;DHT22;9675;51.538;6.728;2022-09-27T00:26:02;12.70;99.90
19085;DHT22;9675;51.538;6.728;2022-09-27T00:28:29;12.70;99.90
19085;DHT22;9675;51.538;6.728;2022-09-27T00:30:57;12.70;99.90
19085;DHT22;9675;51.538;6.728;2022-09-27T00:33:24;12.70;99.90
19085;DHT22;9675;51.538;6.728;2022-09-27T00:35:52;12.70;99.90
19085;DHT22;9675;51.538;6.728;2022-09-27T00:38:19;12.70;99.90
19085;DHT22;9675;51.538;6.728;2022-09-27T00:40:47;12.60;99.90
19085;DHT22;9675;51.538;6.728;2022-09-27T00:43:17;12.60;99.90
19085;DHT22;9675;51.538;6.728;2022-09-27T00:45:48;12.60;99.90
19085;DHT22;9675;51.538;6.728;2022-09-27T00:48:21;12.60;99.90
19085;DHT22;9675;51.538;6.728;2022-09-27T00:50:57;12.60;99.90
19085;DHT22;9675;51.538;6.728;2022-09-27T00:53:29;12.60;99.90
19085;DHT22;9675;51.538;6.728;2022-09-27T00:56:04;12.60;99.90
19085;DHT22;9675;51.538;6.728;2022-09-27T00:58:38;12.60;99.90
19085;DHT22;9675;51.538;6.728;2022-09-27T01:01:09;12.50;99.90
19085;DHT22;9675;51.538;6.728;2022-09-27T01:03:43;12.60;99.90
19085;DHT22;9675;51.538;6.728;2022-09-27T01:06:16;12.50;99.90
19085;DHT22;9675;51.538;6.728;2022-09-27T01:08:45;12.50;99.90
19085;DHT22;9675;51.538;6.728;2022-09-27T01:11:21;12.50;99.90
19085;DHT22;9675;51.538;6.728;2022-09-27T01:14:23;12.50;99.90
19085;DHT22;9675;51.538;6.728;2022-09-27T01:17:17;12.50;99.90
19085;DHT22;9675;51.538;6.728;2022-09-27T01:20:13;12.50;99.90
19085;DHT22;9675;51.538;6.728;2022-09-27T01:23:07;12.50;99.90
19085;DHT22;9675;51.538;6.728;2022-09-27T01:26:00;12.50;99.90
19085;DHT22;9675;51.538;6.728;2022-09-27T01:28:50;12.50;99.90
19085;DHT22;9675;51.538;6.728;2022-09-27T01:31:32;12.50;99.90
19085;DHT22;9675;51.538;6.728;2022-09-27T01:34:04;12.50;99.90
19085;DHT22;9675;51.538;6.728;2022-09-27T01:36:42;12.40;99.90
19085;DHT22;9675;51.538;6.728;2022-09-27T01:39:26;12.40;99.90
19085;DHT22;9675;51.538;6.728;2022-09-27T01:42:09;12.40;99.90
19085;DHT22;9675;51.538;6.728;2022-09-27T01:44:45;12.40;99.90
19085;DHT22;9675;51.538;6.728;2022-09-27T01:47:22;12.40;99.90
19085;DHT22;9675;51.538;6.728;2022-09-27T01:49:57;12.40;99.90
19085;DHT22;9675;51.538;6.728;2022-09-27T01:52:32;12.40;99.90
19085;DHT22;9675;51.538;6.728;2022-09-27T01:55:07;12.40;99.90
19085;DHT22;9675;51.538;6.728;2022-09-27T01:57:41;12.50;99.90
19085;DHT22;9675;51.538;6.728;2022-09-27T02:00:13;12.40;99.90
19085;DHT22;9675;51.538;6.728;2022-09-27T02:02:45;12.40;99.90
19085;DHT22;9675;51.538;6.728;2022-09-27T02:05:16;12.40;99.90
19085;DHT22;9675;51.538;6.728;2022-09-27T02:07:52;12.40;99.90
19085;DHT22;9675;51.538;6.728;2022-09-27T02:10:26;12.40;99.90
19085;DHT22;9675;51.538;6.728;2022-09-27T02:13:14;12.40;99.90
19085;DHT22;9675;51.538;6.728;2022-09-27T02:15:51;12.30;99.90
19085;DHT22;9675;51.538;6.728;2022-09-27T02:18:31;12.40;99.90
19085;DHT22;9675;51.538;6.728;2022-09-27T02:21:06;12.40;99.90
19085;DHT22;9675;51.538;6.728;2022-09-27T02:23:40;12.30;99.90
19085;DHT22;9675;51.538;6.728;2022-09-27T02:26:15;12.30;99.90
19085;DHT22;9675;51.538;6.728;2022-09-27T02:28:51;12.30;99.90
19085;DHT22;9675;51.538;6.728;2022-09-27T02:31:24;12.30;99.90
19085;DHT22;9675;51.538;6.728;2022-09-27T02:33:55;12.30;99.90
19085;DHT22;9675;51.538;6.728;2022-09-27T02:36:27;12.30;99.90
19085;DHT22;9675;51.538;6.728;2022-09-27T02:38:56;12.30;99.90
19085;DHT22;9675;51.538;6.728;2022-09-27T02:41:23;12.30;99.90
19085;DHT22;9675;51.538;6.728;2022-09-27T02:43:52;12.30;99.90
19085;DHT22;9675;51.538;6.728;2022-09-27T02:46:42;12.30;99.90
19085;DHT22;9675;51.538;6.728;2022-09-27T02:49:45;12.30;99.90
19085;DHT22;9675;51.538;6.728;2022-09-27T02:52:28;12.20;99.90
19085;DHT22;9675;51.538;6.728;2022-09-27T02:55:12;12.20;99.90
19085;DHT22;9675;51.538;6.728;2022-09-27T02:57:54;12.30;99.90
19085;DHT22;9675;51.538;6.728;2022-09-27T03:00:36;12.30;99.90
19085;DHT22;9675;51.538;6.728;2022-09-27T03:03:14;12.20;99.90
19085;DHT22;9675;51.538;6.728;2022-09-27T03:05:52;12.20;99.90
19085;DHT22;9675;51.538;6.728;2022-09-27T03:08:25;12.20;99.90
19085;DHT22;9675;51.538;6.728;2022-09-27T03:10:52;12.20;99.90
19085;DHT22;9675;51.538;6.728;2022-09-27T03:13:20;12.20;99.90
19085;DHT22;9675;51.538;6.728;2022-09-27T03:15:47;12.20;99.90
19085;DHT22;9675;51.538;6.728;2022-09-27T03:18:14;12.20;99.90
19085;DHT22;9675;51.538;6.728;2022-09-27T03:20:41;12.20;99.90
19085;DHT22;9675;51.538;6.728;2022-09-27T03:23:10;12.10;99.90
19085;DHT22;9675;51.538;6.728;2022-09-27T03:25:37;12.10;99.90
19085;DHT22;9675;51.538;6.728;2022-09-27T03:28:04;12.10;99.90
19085;DHT22;9675;51.538;6.728;2022-09-27T03:30:32;12.00;99.90
19085;DHT22;9675;51.538;6.728;2022-09-27T03:33:00;12.00;99.90
19085;DHT22;9675;51.538;6.728;2022-09-27T03:35:27;12.00;99.90
19085;DHT22;9675;51.538;6.728;2022-09-27T03:37:54;12.00;99.90
19085;DHT22;9675;51.538;6.728;2022-09-27T03:40:22;12.00;99.90
19085;DHT22;9675;51.538;6.728;2022-09-27T03:42:50;12.00;99.90
19085;DHT22;9675;51.538;6.728;2022-09-27T03:45:17;12.00;99.90
19085;DHT22;9675;51.538;6.728;2022-09-27T03:47:44;12.00;99.90
19085;DHT22;9675;51.538;6.728;2022-09-27T03:50:12;12.00;99.90
19085;DHT22;9675;51.538;6.728;2022-09-27T03:52:40;12.00;99.90
19085;DHT22;9675;51.538;6.728;2022-09-27T03:55:09;11.90;99.90
19085;DHT22;9675;51.538;6.728;2022-09-27T03:57:37;11.90;99.90
19085;DHT22;9675;51.538;6.728;2022-09-27T04:00:06;11.90;99.90
19085;DHT22;9675;51.538;6.728;2022-09-27T04:02:34;11.90;99.90
19085;DHT22;9675;51.538;6.728;2022-09-27T04:05:01;11.90;99.90
19085;DHT22;9675;51.538;6.728;2022-09-27T04:07:28;11.90;99.90
19085;DHT22;9675;51.538;6.728;2022-09-27T04:09:55;11.90;99.90
19085;DHT22;9675;51.538;6.728;2022-09-27T04:12:23;11.90;99.90
19085;DHT22;9675;51.538;6.728;2022-09-27T04:14:51;11.90;99.90
19085;DHT22;9675;51.538;6.728;2022-09-27T04:17:19;11.80;99.90
19085;DHT22;9675;51.538;6.728;2022-09-27T04:19:46;11.80;99.90
19085;DHT22;9675;51.538;6.728;2022-09-27T04:22:14;11.80;99.90
19085;DHT22;9675;51.538;6.728;2022-09-27T04:24:42;11.80;99.90
19085;DHT22;9675;51.538;6.728;2022-09-27T04:27:09;11.80;99.90
19085;DHT22;9675;51.538;6.728;2022-09-27T04:29:36;11.80;99.90
19085;DHT22;9675;51.538;6.728;2022-09-27T04:32:08;11.70;99.90
19085;DHT22;9675;51.538;6.728;2022-09-27T04:34:35;11.70;99.90
19085;DHT22;9675;51.538;6.728;2022-09-27T04:37:20;11.60;99.90
19085;DHT22;9675;51.538;6.728;2022-09-27T04:39:47;11.70;99.90
19085;DHT22;9675;51.538;6.728;2022-09-27T04:42:14;11.70;99.90
19085;DHT22;9675;51.538;6.728;2022-09-27T04:44:42;11.70;99.90
19085;DHT22;9675;51.538;6.728;2022-09-27T04:47:10;11.70;99.90
19085;DHT22;9675;51.538;6.728;2022-09-27T04:49:37;11.60;99.90
19085;DHT22;9675;51.538;6.728;2022-09-27T04:52:04;11.60;99.90
19085;DHT22;9675;51.538;6.728;2022-09-27T04:54:32;11.60;99.90
19085;DHT22;9675;51.538;6.728;2022-09-27T04:56:59;11.60;99.90
19085;DHT22;9675;51.538;6.728;2022-09-27T04:59:26;11.60;99.90
19085;DHT22;9675;51.538;6.728;2022-09-27T05:01:53;11.60;99.90
19085;DHT22;9675;51.538;6.728;2022-09-27T05:04:22;11.60;99.90
19085;DHT22;9675;51.538;6.728;2022-09-27T05:06:49;11.60;99.90
19085;DHT22;9675;51.538;6.728;2022-09-27T05:09:17;11.60;99.90
19085;DHT22;9675;51.538;6.728;2022-09-27T05:11:45;11.50;99.90
19085;DHT22;9675;51.538;6.728;2022-09-27T05:14:12;11.50;99.90
19085;DHT22;9675;51.538;6.728;2022-09-27T05:16:40;11.50;99.90
19085;DHT22;9675;51.538;6.728;2022-09-27T05:19:07;11.40;99.90
19085;DHT22;9675;51.538;6.728;2022-09-27T05:21:36;11.40;99.90
19085;DHT22;9675;51.538;6.728;2022-09-27T05:24:03;11.40;99.90
19085;DHT22;9675;51.538;6.728;2022-09-27T05:26:30;11.30;99.90
19085;DHT22;9675;51.538;6.728;2022-09-27T05:28:57;11.30;99.90
19085;DHT22;9675;51.538;6.728;2022-09-27T05:31:25;11.30;99.90
19085;DHT22;9675;51.538;6.728;2022-09-27T05:33:52;11.30;99.90
19085;DHT22;9675;51.538;6.728;2022-09-27T05:36:20;11.30;99.90
19085;DHT22;9675;51.538;6.728;2022-09-27T05:38:51;11.40;99.90
19085;DHT22;9675;51.538;6.728;2022-09-27T05:41:19;11.40;99.90
19085;DHT22;9675;51.538;6.728;2022-09-27T05:43:46;11.40;99.90
19085;DHT22;9675;51.538;6.728;2022-09-27T05:46:13;11.40;99.90
19085;DHT22;9675;51.538;6.728;2022-09-27T05:48:40;11.40;99.90
19085;DHT22;9675;51.538;6.728;2022-09-27T05:51:08;11.30;99.90
19085;DHT22;9675;51.538;6.728;2022-09-27T05:53:35;11.40;99.90
19085;DHT22;9675;51.538;6.728;2022-09-27T05:56:04;11.40;99.90
19085;DHT22;9675;51.538;6.728;2022-09-27T05:58:32;11.30;99.90
19085;DHT22;9675;51.538;6.728;2022-09-27T06:01:00;11.30;99.90
19085;DHT22;9675;51.538;6.728;2022-09-27T06:03:27;11.40;99.90
19085;DHT22;9675;51.538;6.728;2022-09-27T06:05:54;11.40;99.90
19085;DHT22;9675;51.538;6.728;2022-09-27T06:08:21;11.40;99.90
19085;DHT22;9675;51.538;6.728;2022-09-27T06:10:48;11.30;99.90
19085;DHT22;9675;51.538;6.728;2022-09-27T06:13:18;11.30;99.90
19085;DHT22;9675;51.538;6.728;2022-09-27T06:15:46;11.30;99.90
19085;DHT22;9675;51.538;6.728;2022-09-27T06:18:15;11.30;99.90
19085;DHT22;9675;51.538;6.728;2022-09-27T06:20:43;11.30;99.90
19085;DHT22;9675;51.538;6.728;2022-09-27T06:23:13;11.30;99.90
19085;DHT22;9675;51.538;6.728;2022-09-27T06:25:43;11.30;99.90
19085;DHT22;9675;51.538;6.728;2022-09-27T06:28:12;11.30;99.90
19085;DHT22;9675;51.538;6.728;2022-09-27T06:30:44;11.30;99.90
19085;DHT22;9675;51.538;6.728;2022-09-27T06:33:13;11.30;99.90
19085;DHT22;9675;51.538;6.728;2022-09-27T06:35:43;11.30;99.90
19085;DHT22;9675;51.538;6.728;2022-09-27T06:38:12;11.30;99.90
19085;DHT22;9675;51.538;6.728;2022-09-27T06:40:40;11.30;99.90
19085;DHT22;9675;51.538;6.728;2022-09-27T06:43:11;11.30;99.90
19085;DHT22;9675;51.538;6.728;2022-09-27T06:45:41;11.40;99.90
19085;DHT22;9675;51.538;6.728;2022-09-27T06:48:10;11.40;99.90
19085;DHT22;9675;51.538;6.728;2022-09-27T06:50:41;11.30;99.90
19085;DHT22;9675;51.538;6.728;2022-09-27T06:53:10;11.30;99.90
19085;DHT22;9675;51.538;6.728;2022-09-27T06:55:39;11.30;99.90
19085;DHT22;9675;51.538;6.728;2022-09-27T06:58:08;11.30;99.90
19085;DHT22;9675;51.538;6.728;2022-09-27T07:00:55;11.30;99.90
19085;DHT22;9675;51.538;6.728;2022-09-27T07:03:23;11.30;99.90
19085;DHT22;9675;51.538;6.728;2022-09-27T07:05:58;11.30;99.90
19085;DHT22;9675;51.538;6.728;2022-09-27T07:08:27;11.40;99.90
19085;DHT22;9675;51.538;6.728;2022-09-27T07:10:59;11.40;99.90
19085;DHT22;9675;51.538;6.728;2022-09-27T07:13:28;11.30;99.90
19085;DHT22;9675;51.538;6.728;2022-09-27T07:15:58;11.40;99.90
19085;DHT22;9675;51.538;6.728;2022-09-27T07:18:26;11.40;99.90
19085;DHT22;9675;51.538;6.728;2022-09-27T07:20:54;11.30;99.90
19085;DHT22;9675;51.538;6.728;2022-09-27T07:23:21;11.30;99.90
19085;DHT22;9675;51.538;6.728;2022-09-27T07:25:49;11.30;99.90
19085;DHT22;9675;51.538;6.728;2022-09-27T07:28:17;11.30;99.90
19085;DHT22;9675;51.538;6.728;2022-09-27T07:30:45;11.30;99.90
19085;DHT22;9675;51.538;6.728;2022-09-27T07:33:14;11.30;99.90
19085;DHT22;9675;51.538;6.728;2022-09-27T07:35:41;11.30;99.90
19085;DHT22;9675;51.538;6.728;2022-09-27T07:38:11;11.20;99.90
19085;DHT22;9675;51.538;6.728;2022-09-27T07:40:39;11.30;99.90
19085;DHT22;9675;51.538;6.728;2022-09-27T07:43:07;11.30;99.90
19085;DHT22;9675;51.538;6.728;2022-09-27T07:45:35;11.30;99.90
19085;DHT22;9675;51.538;6.728;2022-09-27T07:48:04;11.30;99.90
19085;DHT22;9675;51.538;6.728;2022-09-27T07:50:33;11.30;99.90
19085;DHT22;9675;51.538;6.728;2022-09-27T07:53:02;11.30;99.90
19085;DHT22;9675;51.538;6.728;2022-09-27T07:55:30;11.30;99.90
19085;DHT22;9675;51.538;6.728;2022-09-27T07:58:05;11.30;99.90
19085;DHT22;9675;51.538;6.728;2022-09-27T08:00:33;11.40;99.90
19085;DHT22;9675;51.538;6.728;2022-09-27T08:03:06;11.40;99.90
19085;DHT22;9675;51.538;6.728;2022-09-27T08:05:37;11.40;99.90
19085;DHT22;9675;51.538;6.728;2022-09-27T08:08:04;11.40;99.90
19085;DHT22;9675;51.538;6.728;2022-09-27T08:10:32;11.40;99.90
19085;DHT22;9675;51.538;6.728;2022-09-27T08:13:01;11.40;99.90
19085;DHT22;9675;51.538;6.728;2022-09-27T08:15:29;11.50;99.90
19085;DHT22;9675;51.538;6.728;2022-09-27T08:17:57;11.50;99.90
19085;DHT22;9675;51.538;6.728;2022-09-27T08:20:25;11.50;99.90
19085;DHT22;9675;51.538;6.728;2022-09-27T08:22:53;11.50;99.90
19085;DHT22;9675;51.538;6.728;2022-09-27T08:25:21;11.60;99.90
19085;DHT22;9675;51.538;6.728;2022-09-27T08:27:54;11.60;99.90
19085;DHT22;9675;51.538;6.728;2022-09-27T08:30:22;11.60;99.90
19085;DHT22;9675;51.538;6.728;2022-09-27T08:32:54;11.60;99.90
19085;DHT22;9675;51.538;6.728;2022-09-27T08:35:21;11.70;99.90
19085;DHT22;9675;51.538;6.728;2022-09-27T08:37:54;11.60;99.90
19085;DHT22;9675;51.538;6.728;2022-09-27T08:40:29;11.70;99.90
19085;DHT22;9675;51.538;6.728;2022-09-27T08:43:10;11.70;99.90
19085;DHT22;9675;51.538;6.728;2022-09-27T08:46:05;11.70;99.90
19085;DHT22;9675;51.538;6.728;2022-09-27T08:48:40;11.70;99.90
19085;DHT22;9675;51.538;6.728;2022-09-27T08:51:13;11.70;99.90
19085;DHT22;9675;51.538;6.728;2022-09-27T08:53:46;11.80;99.90
19085;DHT22;9675;51.538;6.728;2022-09-27T08:56:18;11.80;99.90
19085;DHT22;9675;51.538;6.728;2022-09-27T08:58:50;11.80;99.90
19085;DHT22;9675;51.538;6.728;2022-09-27T09:01:23;11.80;99.90
19085;DHT22;9675;51.538;6.728;2022-09-27T09:03:54;11.80;99.90
19085;DHT22;9675;51.538;6.728;2022-09-27T09:06:27;11.80;99.90
19085;DHT22;9675;51.538;6.728;2022-09-27T09:09:10;11.80;99.90
19085;DHT22;9675;51.538;6.728;2022-09-27T09:11:57;11.80;99.90
19085;DHT22;9675;51.538;6.728;2022-09-27T09:15:06;11.80;99.90
19085;DHT22;9675;51.538;6.728;2022-09-27T09:17:54;11.80;99.90
19085;DHT22;9675;51.538;6.728;2022-09-27T09:20:53;11.80;99.90
19085;DHT22;9675;51.538;6.728;2022-09-27T09:23:38;11.80;99.90
19085;DHT22;9675;51.538;6.728;2022-09-27T09:26:18;11.80;99.90
19085;DHT22;9675;51.538;6.728;2022-09-27T09:29:01;11.80;99.90
19085;DHT22;9675;51.538;6.728;2022-09-27T09:31:40;11.80;99.90
19085;DHT22;9675;51.538;6.728;2022-09-27T09:34:16;11.80;99.90
19085;DHT22;9675;51.538;6.728;2022-09-27T09:36:52;11.90;99.90
19085;DHT22;9675;51.538;6.728;2022-09-27T09:39:25;11.90;99.90
19085;DHT22;9675;51.538;6.728;2022-09-27T09:42:06;11.90;99.90
19085;DHT22;9675;51.538;6.728;2022-09-27T09:44:44;11.90;99.90
19085;DHT22;9675;51.538;6.728;2022-09-27T09:47:24;11.90;99.90
19085;DHT22;9675;51.538;6.728;2022-09-27T09:50:03;11.90;99.90
19085;DHT22;9675;51.538;6.728;2022-09-27T09:52:38;11.90;99.90
19085;DHT22;9675;51.538;6.728;2022-09-27T09:55:16;12.00;99.90
19085;DHT22;9675;51.538;6.728;2022-09-27T09:57:53;11.90;99.90
19085;DHT22;9675;51.538;6.728;2022-09-27T10:00:27;11.90;99.90
19085;DHT22;9675;51.538;6.728;2022-09-27T10:02:57;12.00;99.90
19085;DHT22;9675;51.538;6.728;2022-09-27T10:05:27;11.90;99.90
19085;DHT22;9675;51.538;6.728;2022-09-27T10:08:00;11.90;99.90
19085;DHT22;9675;51.538;6.728;2022-09-27T10:10:30;12.00;99.90
19085;DHT22;9675;51.538;6.728;2022-09-27T10:13:02;12.00;99.90
19085;DHT22;9675;51.538;6.728;2022-09-27T10:15:30;12.00;99.90
19085;DHT22;9675;51.538;6.728;2022-09-27T10:17:58;12.00;99.90
19085;DHT22;9675;51.538;6.728;2022-09-27T10:20:30;12.00;99.90
19085;DHT22;9675;51.538;6.728;2022-09-27T10:23:07;12.10;99.90
19085;DHT22;9675;51.538;6.728;2022-09-27T10:25:45;12.10;99.90
19085;DHT22;9675;51.538;6.728;2022-09-27T10:28:29;12.10;99.90
19085;DHT22;9675;51.538;6.728;2022-09-27T10:31:00;12.10;99.90
19085;DHT22;9675;51.538;6.728;2022-09-27T10:33:30;12.10;99.90
19085;DHT22;9675;51.538;6.728;2022-09-27T10:35:59;12.10;99.90
19085;DHT22;9675;51.538;6.728;2022-09-27T10:38:29;12.10;99.90
19085;DHT22;9675;51.538;6.728;2022-09-27T10:41:15;12.20;99.90
19085;DHT22;9675;51.538;6.728;2022-09-27T10:43:44;12.20;99.90
19085;DHT22;9675;51.538;6.728;2022-09-27T10:46:15;12.20;99.90
19085;DHT22;9675;51.538;6.728;2022-09-27T10:49:08;12.30;99.90
19085;DHT22;9675;51.538;6.728;2022-09-27T10:51:38;12.30;99.90
19085;DHT22;9675;51.538;6.728;2022-09-27T10:54:17;12.30;99.90
19085;DHT22;9675;51.538;6.728;2022-09-27T10:56:53;12.30;99.90
19085;DHT22;9675;51.538;6.728;2022-09-27T10:59:28;12.30;99.90
19085;DHT22;9675;51.538;6.728;2022-09-27T11:02:00;12.30;99.90
19085;DHT22;9675;51.538;6.728;2022-09-27T11:04:30;12.40;99.90
19085;DHT22;9675;51.538;6.728;2022-09-27T11:07:11;12.40;99.90
19085;DHT22;9675;51.538;6.728;2022-09-27T11:09:46;12.40;99.90
19085;DHT22;9675;51.538;6.728;2022-09-27T11:12:15;12.40;99.90
19085;DHT22;9675;51.538;6.728;2022-09-27T11:14:51;12.50;99.90
19085;DHT22;9675;51.538;6.728;2022-09-27T11:17:27;12.50;99.90
19085;DHT22;9675;51.538;6.728;2022-09-27T11:20:20;12.50;99.90
19085;DHT22;9675;51.538;6.728;2022-09-27T11:23:17;12.50;99.90
19085;DHT22;9675;51.538;6.728;2022-09-27T11:26:09;12.50;99.90
19085;DHT22;9675;51.538;6.728;2022-09-27T11:28:56;12.50;99.90
19085;DHT22;9675;51.538;6.728;2022-09-27T11:31:42;12.60;99.90
19085;DHT22;9675;51.538;6.728;2022-09-27T11:34:48;12.50;99.90
19085;DHT22;9675;51.538;6.728;2022-09-27T11:37:32;12.60;99.90
19085;DHT22;9675;51.538;6.728;2022-09-27T11:40:22;12.60;99.90
19085;DHT22;9675;51.538;6.728;2022-09-27T11:43:21;12.60;99.90
19085;DHT22;9675;51.538;6.728;2022-09-27T11:46:03;12.60;99.90
19085;DHT22;9675;51.538;6.728;2022-09-27T11:48:57;12.60;99.90
19085;DHT22;9675;51.538;6.728;2022-09-27T11:52:00;12.60;99.90
19085;DHT22;9675;51.538;6.728;2022-09-27T11:54:55;12.70;99.90
19085;DHT22;9675;51.538;6.728;2022-09-27T11:57:38;12.70;99.90
19085;DHT22;9675;51.538;6.728;2022-09-27T12:00:15;12.70;99.90
19085;DHT22;9675;51.538;6.728;2022-09-27T12:03:06;12.70;99.90
19085;DHT22;9675;51.538;6.728;2022-09-27T12:08:56;12.70;99.90
19085;DHT22;9675;51.538;6.728;2022-09-27T12:11:35;12.80;99.90
19085;DHT22;9675;51.538;6.728;2022-09-27T12:14:13;12.80;99.90
19085;DHT22;9675;51.538;6.728;2022-09-27T12:16:46;12.80;99.90
19085;DHT22;9675;51.538;6.728;2022-09-27T12:19:18;12.80;99.90
19085;DHT22;9675;51.538;6.728;2022-09-27T12:21:50;12.80;99.90
19085;DHT22;9675;51.538;6.728;2022-09-27T12:24:21;12.80;99.90
19085;DHT22;9675;51.538;6.728;2022-09-27T12:26:52;12.90;99.90
19085;DHT22;9675;51.538;6.728;2022-09-27T12:29:26;12.80;99.90
19085;DHT22;9675;51.538;6.728;2022-09-27T12:32:03;12.90;99.90
19085;DHT22;9675;51.538;6.728;2022-09-27T12:34:41;12.90;99.90
19085;DHT22;9675;51.538;6.728;2022-09-27T12:37:21;12.90;99.90
19085;DHT22;9675;51.538;6.728;2022-09-27T12:39:57;12.90;99.90
19085;DHT22;9675;51.538;6.728;2022-09-27T12:42:31;12.90;99.90
19085;DHT22;9675;51.538;6.728;2022-09-27T12:45:03;12.90;99.90
19085;DHT22;9675;51.538;6.728;2022-09-27T12:47:52;12.90;99.90
19085;DHT22;9675;51.538;6.728;2022-09-27T12:50:34;13.00;99.90
19085;DHT22;9675;51.538;6.728;2022-09-27T12:53:12;13.00;99.90
19085;DHT22;9675;51.538;6.728;2022-09-27T12:56:05;13.00;99.90
19085;DHT22;9675;51.538;6.728;2022-09-27T13:02:44;13.10;99.90
19085;DHT22;9675;51.538;6.728;2022-09-27T13:09:03;13.10;99.90
19085;DHT22;9675;51.538;6.728;2022-09-27T13:12:00;13.10;99.90
19085;DHT22;9675;51.538;6.728;2022-09-27T13:14:33;13.10;99.90
19085;DHT22;9675;51.538;6.728;2022-09-27T13:17:05;13.10;99.90
19085;DHT22;9675;51.538;6.728;2022-09-27T13:19:43;13.10;99.90
19085;DHT22;9675;51.538;6.728;2022-09-27T13:22:35;13.20;99.90
19085;DHT22;9675;51.538;6.728;2022-09-27T13:25:46;13.20;99.90
19085;DHT22;9675;51.538;6.728;2022-09-27T13:28:56;13.20;99.90
19085;DHT22;9675;51.538;6.728;2022-09-27T13:34:38;13.30;99.90
19085;DHT22;9675;51.538;6.728;2022-09-27T13:37:37;13.30;99.90
19085;DHT22;9675;51.538;6.728;2022-09-27T13:40:40;13.40;99.90
19085;DHT22;9675;51.538;6.728;2022-09-27T13:43:30;13.40;99.90
19085;DHT22;9675;51.538;6.728;2022-09-27T13:46:15;13.40;99.90
19085;DHT22;9675;51.538;6.728;2022-09-27T13:48:49;13.40;99.90
19085;DHT22;9675;51.538;6.728;2022-09-27T13:51:34;13.40;99.90
19085;DHT22;9675;51.538;6.728;2022-09-27T13:54:37;13.40;99.90
19085;DHT22;9675;51.538;6.728;2022-09-27T13:57:41;13.50;99.90
19085;DHT22;9675;51.538;6.728;2022-09-27T14:00:14;13.50;99.90
19085;DHT22;9675;51.538;6.728;2022-09-27T14:02:52;13.50;99.90
19085;DHT22;9675;51.538;6.728;2022-09-27T14:05:29;13.60;99.90
19085;DHT22;9675;51.538;6.728;2022-09-27T14:08:01;13.60;99.90
19085;DHT22;9675;51.538;6.728;2022-09-27T14:10:31;13.60;99.90
19085;DHT22;9675;51.538;6.728;2022-09-27T14:13:03;13.60;99.90
19085;DHT22;9675;51.538;6.728;2022-09-27T14:15:32;13.60;99.90
19085;DHT22;9675;51.538;6.728;2022-09-27T14:18:00;13.60;99.90
19085;DHT22;9675;51.538;6.728;2022-09-27T14:20:36;13.70;99.90
19085;DHT22;9675;51.538;6.728;2022-09-27T14:23:13;13.70;99.90
19085;DHT22;9675;51.538;6.728;2022-09-27T14:25:44;13.70;99.90
19085;DHT22;9675;51.538;6.728;2022-09-27T14:28:22;13.70;99.90
19085;DHT22;9675;51.538;6.728;2022-09-27T14:31:05;13.70;99.90
19085;DHT22;9675;51.538;6.728;2022-09-27T14:33:33;13.70;99.90
19085;DHT22;9675;51.538;6.728;2022-09-27T14:36:01;13.80;99.90
19085;DHT22;9675;51.538;6.728;2022-09-27T14:38:50;13.80;99.90
19085;DHT22;9675;51.538;6.728;2022-09-27T14:41:18;13.80;99.90
19085;DHT22;9675;51.538;6.728;2022-09-27T14:43:46;13.80;99.90
19085;DHT22;9675;51.538;6.728;2022-09-27T14:46:25;13.80;99.90
19085;DHT22;9675;51.538;6.728;2022-09-27T14:48:53;13.80;99.90
19085;DHT22;9675;51.538;6.728;2022-09-27T14:51:26;13.80;99.90
19085;DHT22;9675;51.538;6.728;2022-09-27T14:53:56;13.80;99.90
19085;DHT22;9675;51.538;6.728;2022-09-27T14:56:26;13.80;99.90
19085;DHT22;9675;51.538;6.728;2022-09-27T14:59:02;13.90;99.90
19085;DHT22;9675;51.538;6.728;2022-09-27T15:01:33;13.90;99.90
19085;DHT22;9675;51.538;6.728;2022-09-27T15:04:04;13.80;99.90
19085;DHT22;9675;51.538;6.728;2022-09-27T15:06:35;13.90;99.90
19085;DHT22;9675;51.538;6.728;2022-09-27T15:09:06;13.90;99.90
19085;DHT22;9675;51.538;6.728;2022-09-27T15:11:38;13.90;99.90
19085;DHT22;9675;51.538;6.728;2022-09-27T15:14:12;13.90;99.90
19085;DHT22;9675;51.538;6.728;2022-09-27T15:16:41;13.90;99.90
19085;DHT22;9675;51.538;6.728;2022-09-27T15:19:14;13.90;99.90
19085;DHT22;9675;51.538;6.728;2022-09-27T15:21:44;14.00;99.90
19085;DHT22;9675;51.538;6.728;2022-09-27T15:24:35;13.90;99.90
19085;DHT22;9675;51.538;6.728;2022-09-27T15:27:11;14.00;99.90
19085;DHT22;9675;51.538;6.728;2022-09-27T15:29:47;13.90;99.90
19085;DHT22;9675;51.538;6.728;2022-09-27T15:32:17;13.90;99.90
19085;DHT22;9675;51.538;6.728;2022-09-27T15:34:47;14.00;99.90
19085;DHT22;9675;51.538;6.728;2022-09-27T15:37:27;14.00;99.90
19085;DHT22;9675;51.538;6.728;2022-09-27T15:40:21;14.00;99.90
19085;DHT22;9675;51.538;6.728;2022-09-27T15:43:20;14.00;99.90
19085;DHT22;9675;51.538;6.728;2022-09-27T15:45:51;14.00;99.90
19085;DHT22;9675;51.538;6.728;2022-09-27T15:48:19;14.00;99.90
19085;DHT22;9675;51.538;6.728;2022-09-27T15:50:48;14.00;99.90
19085;DHT22;9675;51.538;6.728;2022-09-27T15:53:40;14.00;99.90
19085;DHT22;9675;51.538;6.728;2022-09-27T15:56:14;14.00;99.90
19085;DHT22;9675;51.538;6.728;2022-09-27T15:58:42;13.90;99.90
19085;DHT22;9675;51.538;6.728;2022-09-27T16:01:18;13.90;99.90
19085;DHT22;9675;51.538;6.728;2022-09-27T16:03:47;14.00;99.90
19085;DHT22;9675;51.538;6.728;2022-09-27T16:06:15;13.90;99.90
19085;DHT22;9675;51.538;6.728;2022-09-27T16:08:43;14.00;99.90
19085;DHT22;9675;51.538;6.728;2022-09-27T16:11:13;13.90;99.90
19085;DHT22;9675;51.538;6.728;2022-09-27T16:13:42;13.90;99.90
19085;DHT22;9675;51.538;6.728;2022-09-27T16:16:19;13.90;99.90
19085;DHT22;9675;51.538;6.728;2022-09-27T16:18:48;13.90;99.90
19085;DHT22;9675;51.538;6.728;2022-09-27T16:21:15;13.90;99.90
19085;DHT22;9675;51.538;6.728;2022-09-27T16:23:42;13.90;99.90
19085;DHT22;9675;51.538;6.728;2022-09-27T16:26:09;13.90;99.90
19085;DHT22;9675;51.538;6.728;2022-09-27T16:28:36;13.90;99.90
19085;DHT22;9675;51.538;6.728;2022-09-27T16:31:05;13.90;99.90
19085;DHT22;9675;51.538;6.728;2022-09-27T16:33:36;13.90;99.90
19085;DHT22;9675;51.538;6.728;2022-09-27T16:36:05;13.80;99.90
19085;DHT22;9675;51.538;6.728;2022-09-27T16:38:39;13.80;99.90
19085;DHT22;9675;51.538;6.728;2022-09-27T16:41:06;13.80;99.90
19085;DHT22;9675;51.538;6.728;2022-09-27T16:43:33;13.80;99.90